Time;durP1;ratioP1;P1;durP2;ratioP2;P2;SDS_P1;SDS_P2;PMS_P1;PMS_P2;Temp;Humidity;BMP_temperature;BMP_pressure;BME280_temperature;BME280_humidity;BME280_pressure;Samples;Min_cycle;Max_cycle;Signal;HPM_P1;HPM_P2
2021/12/14 00:02:14;;;;;;;20.65;15.10;;;8.90;99.90;;;;;;5002335;28;20592;-83
2021/12/14 00:04:41;;;;;;;20.95;15.43;;;8.90;99.90;;;;;;4993419;28;20122;-83
2021/12/14 00:07:10;;;;;;;21.02;15.13;;;8.90;99.90;;;;;;4984920;28;20465;-83
2021/12/14 00:09:39;;;;;;;21.00;14.18;;;8.90;99.90;;;;;;4984470;28;20438;-83
2021/12/14 00:17:26;;;;;;;21.67;14.48;;;8.90;99.90;;;;;;5000952;28;20041;-83
2021/12/14 00:19:57;;;;;;;18.95;14.40;;;8.90;99.90;;;;;;4982024;28;20038;-83
2021/12/14 00:24:06;;;;;;;21.80;15.07;;;8.90;99.90;;;;;;5000127;28;20072;-83
2021/12/14 00:25:30;;;;;;;20.52;14.60;;;8.90;99.90;;;;;;5001324;28;20042;-83
2021/12/14 00:27:58;;;;;;;19.05;14.40;;;8.90;99.90;;;;;;5010084;28;20045;-83
2021/12/14 00:30:24;;;;;;;20.45;14.40;;;8.90;99.90;;;;;;4996804;28;20045;-83
2021/12/14 00:32:50;;;;;;;17.80;13.80;;;8.90;99.90;;;;;;5001823;28;20114;-83
2021/12/14 00:35:16;;;;;;;18.95;13.98;;;8.90;99.90;;;;;;4981975;28;20083;-83
2021/12/14 00:37:48;;;;;;;20.42;13.85;;;8.90;99.90;;;;;;4984387;28;20477;-83
2021/12/14 00:40:16;;;;;;;18.95;14.32;;;8.90;99.90;;;;;;4983326;28;20034;-82
2021/12/14 00:42:43;;;;;;;18.50;13.85;;;8.80;99.90;;;;;;4998176;28;20037;-83
2021/12/14 00:45:09;;;;;;;18.92;13.15;;;8.90;99.90;;;;;;4983915;28;20041;-83
2021/12/14 00:47:36;;;;;;;19.77;13.60;;;8.80;99.90;;;;;;4999451;28;20053;-83
2021/12/14 00:50:03;;;;;;;17.50;13.07;;;8.80;99.90;;;;;;4983857;28;20420;-83
2021/12/14 00:52:28;;;;;;;16.30;12.23;;;8.80;99.90;;;;;;4989794;28;20033;-83
2021/12/14 00:54:54;;;;;;;18.05;12.27;;;8.80;99.90;;;;;;5001868;28;20076;-83
2021/12/14 00:57:20;;;;;;;17.05;13.35;;;8.80;99.90;;;;;;4988729;28;20075;-83
2021/12/14 00:59:46;;;;;;;17.80;12.82;;;8.80;99.90;;;;;;4986780;28;20057;-82
2021/12/14 01:02:21;;;;;;;17.13;13.25;;;8.80;99.90;;;;;;5002842;28;20036;-83
2021/12/14 01:04:55;;;;;;;18.40;13.38;;;8.80;99.90;;;;;;5001134;28;20069;-83
2021/12/14 01:07:25;;;;;;;17.02;12.68;;;8.80;99.90;;;;;;5005289;28;20060;-82
2021/12/14 01:09:56;;;;;;;16.27;12.20;;;8.80;99.90;;;;;;4987858;28;20084;-83
2021/12/14 01:12:43;;;;;;;15.88;12.45;;;8.80;99.90;;;;;;4988076;28;20034;-83
2021/12/14 01:15:27;;;;;;;18.23;13.25;;;8.80;99.90;;;;;;5003758;28;20048;-83
2021/12/14 01:18:27;;;;;;;18.77;13.50;;;8.80;99.90;;;;;;5005871;28;20499;-83
2021/12/14 01:21:10;;;;;;;19.10;13.18;;;8.80;99.90;;;;;;5012771;28;20289;-83
2021/12/14 01:23:37;;;;;;;17.63;13.95;;;8.80;99.90;;;;;;5015688;28;20064;-83
2021/12/14 01:26:09;;;;;;;19.52;13.68;;;8.80;99.90;;;;;;5003132;28;20046;-83
2021/12/14 01:28:36;;;;;;;21.30;14.43;;;8.80;99.90;;;;;;5002888;28;20030;-83
2021/12/14 01:31:16;;;;;;;18.50;14.05;;;8.80;99.90;;;;;;4986469;28;20029;-83
2021/12/14 01:33:49;;;;;;;18.98;14.50;;;8.80;99.90;;;;;;5001212;28;20352;-83
2021/12/14 01:42:07;;;;;;;20.33;13.98;;;8.80;99.90;;;;;;5014955;28;20364;-83
2021/12/14 01:44:40;;;;;;;19.45;14.93;;;8.80;99.90;;;;;;4987802;28;20045;-83
2021/12/14 01:47:13;;;;;;;25.35;16.67;;;8.80;99.90;;;;;;5001055;28;20297;-83
2021/12/14 01:49:39;;;;;;;20.63;15.80;;;8.90;99.90;;;;;;5016959;28;20033;-83
2021/12/14 01:52:12;;;;;;;22.00;15.52;;;8.80;99.90;;;;;;4985547;28;20065;-83
2021/12/14 01:54:41;;;;;;;22.55;16.52;;;8.80;99.90;;;;;;5001828;28;20044;-83
2021/12/14 01:57:10;;;;;;;22.48;16.05;;;8.80;99.90;;;;;;5004926;28;20076;-83
2021/12/14 01:59:40;;;;;;;20.63;15.52;;;8.80;99.90;;;;;;5002075;28;20108;-83
2021/12/14 02:04:43;;;;;;;24.67;15.40;;;8.80;99.90;;;;;;5016655;28;20621;-83
2021/12/14 02:07:11;;;;;;;21.95;16.67;;;8.80;99.90;;;;;;5002992;28;20121;-83
2021/12/14 02:09:39;;;;;;;22.48;16.33;;;8.80;99.90;;;;;;4987660;28;20060;-83
2021/12/14 02:12:31;;;;;;;22.38;16.63;;;8.80;99.90;;;;;;4993379;28;20045;-83
2021/12/14 02:15:07;;;;;;;24.48;16.80;;;8.80;99.90;;;;;;5000434;28;20652;-83
2021/12/14 02:17:33;;;;;;;21.52;17.15;;;8.80;99.90;;;;;;5003042;28;20124;-83
2021/12/14 02:19:59;;;;;;;25.23;17.95;;;8.80;99.90;;;;;;4980794;28;20249;-83
2021/12/14 02:22:26;;;;;;;23.15;17.00;;;8.80;99.90;;;;;;4987902;28;20060;-83
2021/12/14 02:24:52;;;;;;;25.73;17.55;;;8.80;99.90;;;;;;5016887;28;20469;-83
2021/12/14 02:27:18;;;;;;;24.23;17.20;;;8.80;99.90;;;;;;5017348;28;20061;-83
2021/12/14 02:29:46;;;;;;;23.55;17.70;;;8.80;99.90;;;;;;5002886;28;20358;-83
2021/12/14 02:32:24;;;;;;;24.70;18.17;;;8.80;99.90;;;;;;5002309;28;22325;-82
2021/12/14 02:35:00;;;;;;;24.27;17.20;;;8.80;99.90;;;;;;5017520;28;20037;-83
2021/12/14 02:37:41;;;;;;;23.70;17.60;;;8.80;99.90;;;;;;5003400;28;20045;-83
2021/12/14 02:40:20;;;;;;;24.38;18.05;;;8.80;99.90;;;;;;5003200;28;20045;-83
2021/12/14 02:42:50;;;;;;;26.98;19.10;;;8.80;99.90;;;;;;4987266;28;20461;-83
2021/12/14 02:45:23;;;;;;;26.13;18.20;;;8.80;99.90;;;;;;5001964;28;20345;-84
2021/12/14 02:47:49;;;;;;;26.35;19.27;;;8.80;99.90;;;;;;5003301;28;20377;-83
2021/12/14 02:50:16;;;;;;;25.45;18.55;;;8.80;99.90;;;;;;5000167;28;20367;-83
2021/12/14 02:52:42;;;;;;;25.30;19.27;;;8.80;99.90;;;;;;5002985;28;20352;-83
2021/12/14 02:55:13;;;;;;;27.25;18.58;;;8.80;99.90;;;;;;5002052;28;20041;-83
2021/12/14 02:57:43;;;;;;;26.63;18.80;;;8.80;99.90;;;;;;5001505;28;20045;-83
2021/12/14 03:00:32;;;;;;;27.52;19.90;;;8.70;99.90;;;;;;4986262;28;20046;-83
2021/12/14 03:03:03;;;;;;;27.05;19.00;;;8.70;99.90;;;;;;5000283;28;20326;-83
2021/12/14 03:05:33;;;;;;;27.95;19.52;;;8.70;99.90;;;;;;4996001;28;20146;-83
2021/12/14 03:08:17;;;;;;;30.13;19.98;;;8.70;99.90;;;;;;5017965;28;19961;-83
2021/12/14 03:11:11;;;;;;;27.10;19.60;;;8.70;99.90;;;;;;5001194;28;20025;-83
2021/12/14 03:13:52;;;;;;;29.67;19.98;;;8.60;99.90;;;;;;5001818;28;20493;-82
2021/12/14 03:16:23;;;;;;;28.27;19.48;;;8.60;99.90;;;;;;4996835;28;20128;-83
2021/12/14 03:18:50;;;;;;;26.77;20.35;;;8.60;99.90;;;;;;4985578;28;20105;-83
2021/12/14 03:21:23;;;;;;;25.25;18.70;;;8.60;99.90;;;;;;4999345;28;20080;-83
2021/12/14 03:23:57;;;;;;;34.22;20.00;;;8.60;99.90;;;;;;4991512;28;20424;-82
2021/12/14 03:26:27;;;;;;;27.52;19.65;;;8.60;99.90;;;;;;5010489;28;20121;-83
2021/12/14 03:28:56;;;;;;;32.05;21.65;;;8.60;99.90;;;;;;5000662;28;20262;-83
2021/12/14 03:31:32;;;;;;;30.10;20.80;;;8.60;99.90;;;;;;4985557;28;20120;-83
2021/12/14 03:34:03;;;;;;;29.10;20.95;;;8.60;99.90;;;;;;5000552;28;20297;-83
2021/12/14 03:36:37;;;;;;;30.05;20.55;;;8.60;99.90;;;;;;4982596;28;20069;-83
2021/12/14 03:39:16;;;;;;;32.30;21.45;;;8.60;99.90;;;;;;4999470;28;20425;-83
2021/12/14 03:41:51;;;;;;;30.80;21.25;;;8.60;99.90;;;;;;4996900;28;20456;-83
2021/12/14 03:44:34;;;;;;;31.02;21.33;;;8.60;99.90;;;;;;4998594;28;20045;-83
2021/12/14 03:47:12;;;;;;;31.40;21.50;;;8.60;99.90;;;;;;5015656;28;20038;-83
2021/12/14 03:49:48;;;;;;;31.15;20.55;;;8.70;99.90;;;;;;4997183;28;20037;-83
2021/12/14 03:52:19;;;;;;;33.22;21.23;;;8.70;99.90;;;;;;5000890;28;20041;-83
2021/12/14 03:54:48;;;;;;;33.25;21.48;;;8.70;99.90;;;;;;4985019;28;20060;-83
2021/12/14 03:57:14;;;;;;;30.95;21.45;;;8.60;99.90;;;;;;5002735;28;20523;-83
2021/12/14 03:59:41;;;;;;;31.35;21.40;;;8.70;99.90;;;;;;4985285;28;20040;-83
2021/12/14 04:02:11;;;;;;;32.92;21.70;;;8.70;99.90;;;;;;4985363;28;20029;-83
2021/12/14 04:04:42;;;;;;;36.05;22.00;;;8.70;99.90;;;;;;4983976;28;20601;-83
2021/12/14 04:07:11;;;;;;;32.60;21.35;;;8.70;99.90;;;;;;4998219;28;20048;-83
2021/12/14 04:09:38;;;;;;;32.47;22.02;;;8.70;99.90;;;;;;4984658;28;20033;-83
2021/12/14 04:12:14;;;;;;;32.10;21.40;;;8.60;99.90;;;;;;4984217;28;20473;-83
2021/12/14 04:14:42;;;;;;;35.92;22.17;;;8.60;99.90;;;;;;5000691;28;20284;-83
2021/12/14 04:17:10;;;;;;;32.45;21.52;;;8.70;99.90;;;;;;5001104;28;20056;-83
2021/12/14 04:19:36;;;;;;;36.58;22.20;;;8.70;99.90;;;;;;4999562;28;20069;-83
2021/12/14 04:22:08;;;;;;;32.60;20.88;;;8.70;99.90;;;;;;4997865;28;21285;-83
2021/12/14 04:24:37;;;;;;;29.98;21.17;;;8.70;99.90;;;;;;5001782;28;20075;-83
2021/12/14 04:27:06;;;;;;;31.48;21.42;;;8.70;99.90;;;;;;5000081;28;20551;-83
2021/12/14 04:29:32;;;;;;;30.77;21.92;;;8.70;99.90;;;;;;4986624;28;20125;-83
2021/12/14 04:31:58;;;;;;;30.63;21.13;;;8.70;99.90;;;;;;4983647;28;20743;-83
2021/12/14 04:34:24;;;;;;;31.35;21.17;;;8.70;99.90;;;;;;5000663;28;20476;-83
2021/12/14 04:36:53;;;;;;;34.30;22.80;;;8.70;99.90;;;;;;4998280;28;20124;-83
2021/12/14 04:53:10;;;;;;;28.67;20.75;;;8.80;99.90;;;;;;5001143;28;20040;-83
2021/12/14 04:55:36;;;;;;;34.92;22.17;;;8.80;99.90;;;;;;4997606;28;20502;-84
2021/12/14 04:58:02;;;;;;;32.40;21.38;;;8.80;99.90;;;;;;4998720;28;20034;-83
2021/12/14 05:00:49;;;;;;;33.33;22.13;;;8.80;99.90;;;;;;4984681;28;20424;-83
2021/12/14 05:03:19;;;;;;;31.42;21.73;;;8.80;99.90;;;;;;5000111;28;20052;-83
2021/12/14 05:05:49;;;;;;;32.70;22.20;;;8.80;99.90;;;;;;4981693;28;20037;-83
2021/12/14 05:10:57;;;;;;;32.85;22.40;;;8.80;99.90;;;;;;5014099;28;20033;-83
2021/12/14 05:13:40;;;;;;;33.47;22.48;;;8.80;99.90;;;;;;4999166;28;20042;-83
2021/12/14 05:16:07;;;;;;;34.80;22.63;;;8.80;99.90;;;;;;4983804;28;20439;-83
2021/12/14 05:18:32;;;;;;;34.88;23.98;;;8.80;99.90;;;;;;4999577;28;20038;-83
2021/12/14 05:20:59;;;;;;;31.10;22.23;;;8.80;99.90;;;;;;4982087;28;20107;-83
2021/12/14 05:23:34;;;;;;;37.28;23.92;;;8.80;99.90;;;;;;4983512;28;20477;-83
2021/12/14 05:26:02;;;;;;;34.47;23.52;;;8.80;99.90;;;;;;4999001;28;20523;-83
2021/12/14 05:28:29;;;;;;;35.17;23.58;;;8.80;99.90;;;;;;4985545;28;20531;-83
2021/12/14 05:30:57;;;;;;;35.17;24.27;;;8.80;99.90;;;;;;4985005;28;20099;-83
2021/12/14 05:33:30;;;;;;;36.13;23.73;;;8.80;99.90;;;;;;5015761;28;20091;-83
2021/12/14 05:36:00;;;;;;;35.80;23.55;;;8.80;99.90;;;;;;4988011;28;20045;-83
2021/12/14 05:38:44;;;;;;;35.60;24.08;;;8.80;99.90;;;;;;4988152;28;20335;-83
2021/12/14 05:43:05;;;;;;;39.90;24.67;;;8.80;99.90;;;;;;4988169;28;20542;-83
2021/12/14 05:43:58;;;;;;;37.63;24.40;;;8.80;99.90;;;;;;5003737;28;20084;-83
2021/12/14 05:46:24;;;;;;;35.88;24.75;;;8.80;99.90;;;;;;5001891;28;20045;-83
2021/12/14 05:49:03;;;;;;;36.13;24.52;;;8.80;99.90;;;;;;5004883;28;20036;-83
2021/12/14 05:51:31;;;;;;;44.53;25.20;;;8.80;99.90;;;;;;5018199;28;20140;-83
2021/12/14 05:53:59;;;;;;;36.05;25.23;;;8.80;99.90;;;;;;5004321;28;20312;-83
2021/12/14 05:56:26;;;;;;;42.05;26.05;;;8.80;99.90;;;;;;4988824;28;20118;-83
2021/12/14 05:58:54;;;;;;;39.83;25.00;;;8.80;99.90;;;;;;5003789;28;20136;-83
2021/12/14 06:01:23;;;;;;;36.88;23.83;;;8.80;99.90;;;;;;4986470;28;20410;-83
2021/12/14 06:03:56;;;;;;;39.88;24.95;;;8.80;99.90;;;;;;5004008;28;20104;-83
2021/12/14 06:06:27;;;;;;;42.63;25.80;;;8.80;99.90;;;;;;5000746;28;20045;-83
2021/12/14 06:09:10;;;;;;;40.03;26.10;;;8.80;99.90;;;;;;4988397;28;20112;-83
2021/12/14 06:11:37;;;;;;;40.90;25.30;;;8.80;99.90;;;;;;5004010;28;20037;-83
2021/12/14 06:14:04;;;;;;;40.13;25.42;;;8.80;99.90;;;;;;5005091;28;20037;-82
2021/12/14 06:16:35;;;;;;;42.55;27.13;;;8.80;99.90;;;;;;4986963;28;20079;-83
2021/12/14 06:19:35;;;;;;;48.08;28.38;;;8.80;99.90;;;;;;4997149;28;20128;-83
2021/12/14 06:22:09;;;;;;;42.28;27.45;;;8.80;99.90;;;;;;4953751;28;20045;-83
2021/12/14 06:24:39;;;;;;;45.75;27.88;;;8.80;99.90;;;;;;4996162;28;20119;-83
2021/12/14 06:27:09;;;;;;;45.28;27.58;;;8.80;99.90;;;;;;4987516;28;20045;-83
2021/12/14 06:29:40;;;;;;;41.92;26.33;;;8.80;99.90;;;;;;4987470;28;20046;-83
2021/12/14 06:32:11;;;;;;;43.15;27.90;;;8.80;99.90;;;;;;5004445;28;20034;-84
2021/12/14 06:34:44;;;;;;;44.40;28.55;;;8.80;99.90;;;;;;4982996;28;20295;-83
2021/12/14 06:37:23;;;;;;;47.60;28.90;;;8.80;99.90;;;;;;4992332;28;20370;-83
2021/12/14 06:40:16;;;;;;;45.65;28.52;;;8.80;99.90;;;;;;4998761;28;20029;-83
2021/12/14 06:42:54;;;;;;;42.85;27.88;;;8.80;99.90;;;;;;4999845;28;20102;-83
2021/12/14 06:45:27;;;;;;;43.13;27.02;;;8.80;99.90;;;;;;4986384;28;20129;-83
2021/12/14 06:47:57;;;;;;;45.20;30.20;;;8.90;99.90;;;;;;5003713;28;20065;-83
2021/12/14 06:50:34;;;;;;;44.13;29.63;;;8.90;99.90;;;;;;4998875;28;20072;-83
2021/12/14 06:53:05;;;;;;;50.63;29.80;;;8.90;99.90;;;;;;5001843;28;20044;-83
2021/12/14 06:55:33;;;;;;;49.72;30.15;;;8.80;99.90;;;;;;4996103;28;20092;-83
2021/12/14 06:58:09;;;;;;;51.22;30.23;;;8.90;99.90;;;;;;4997493;28;20049;-83
2021/12/14 07:00:37;;;;;;;54.17;32.35;;;8.90;99.90;;;;;;4995193;28;20053;-83
2021/12/14 07:03:03;;;;;;;53.50;30.35;;;8.90;99.90;;;;;;4983141;28;20061;-83
2021/12/14 07:05:30;;;;;;;51.70;32.70;;;8.90;99.90;;;;;;4994512;28;20044;-83
2021/12/14 07:07:58;;;;;;;53.30;30.75;;;8.80;99.90;;;;;;5001166;28;20064;-83
2021/12/14 07:10:24;;;;;;;54.90;31.65;;;8.80;99.90;;;;;;5016472;28;20512;-83
2021/12/14 07:12:51;;;;;;;54.38;32.58;;;8.80;99.90;;;;;;4999633;28;20034;-83
2021/12/14 07:15:26;;;;;;;53.88;31.63;;;8.90;99.90;;;;;;4983998;28;20033;-83
2021/12/14 07:18:01;;;;;;;54.75;32.25;;;8.80;99.90;;;;;;4982186;28;20184;-83
2021/12/14 07:20:30;;;;;;;;;;;8.90;99.90;;;;;;4981842;28;20050;-83
2021/12/14 07:23:01;;;;;;;56.08;31.45;;;8.90;99.90;;;;;;5016351;28;19924;-83
2021/12/14 07:25:34;;;;;;;60.90;32.88;;;8.90;99.90;;;;;;4983011;28;20543;-83
2021/12/14 07:28:04;;;;;;;60.17;34.13;;;8.90;99.90;;;;;;4998915;28;20050;-83
2021/12/14 07:30:47;;;;;;;62.47;33.95;;;8.90;99.90;;;;;;5000433;28;20202;-83
2021/12/14 07:33:34;;;;;;;62.33;34.92;;;8.80;99.90;;;;;;4994191;28;20053;-83
2021/12/14 07:36:05;;;;;;;61.83;35.50;;;8.90;99.90;;;;;;4992371;28;20037;-83
2021/12/14 07:38:48;;;;;;;58.95;33.15;;;8.90;99.90;;;;;;4984243;28;20042;-83
2021/12/14 07:41:29;;;;;;;62.72;35.35;;;8.90;99.90;;;;;;4987348;28;20069;-83
2021/12/14 07:43:57;;;;;;;61.97;35.08;;;8.90;99.90;;;;;;5016139;28;20378;-83
2021/12/14 07:46:29;;;;;;;65.70;34.40;;;9.00;99.90;;;;;;4998749;28;20121;-83
2021/12/14 07:49:07;;;;;;;61.05;33.83;;;9.00;99.90;;;;;;4981288;28;20792;-83
2021/12/14 07:51:36;;;;;;;62.08;34.13;;;9.00;99.90;;;;;;4990762;28;20053;-83
2021/12/14 07:54:10;;;;;;;65.30;36.78;;;9.00;99.90;;;;;;5001048;28;20611;-82
2021/12/14 07:56:45;;;;;;;68.05;37.90;;;9.00;99.90;;;;;;5003041;28;20045;-83
2021/12/14 07:59:20;;;;;;;65.32;36.85;;;9.00;99.90;;;;;;5014977;28;20037;-83
2021/12/14 08:01:46;;;;;;;68.90;37.70;;;9.00;99.90;;;;;;5016871;28;20079;-83
2021/12/14 08:04:13;;;;;;;68.18;37.90;;;9.00;99.90;;;;;;4979030;28;20207;-82
2021/12/14 08:06:48;;;;;;;67.22;37.97;;;9.10;99.90;;;;;;4984329;28;20088;-83
2021/12/14 08:09:45;;;;;;;68.30;35.88;;;9.10;99.90;;;;;;5000354;28;20048;-83
2021/12/14 08:12:25;;;;;;;65.68;37.15;;;9.10;99.90;;;;;;4986910;28;20060;-83
2021/12/14 08:15:03;;;;;;;68.80;39.33;;;9.10;99.90;;;;;;4985946;28;20049;-84
2021/12/14 08:17:29;;;;;;;81.20;39.13;;;9.10;99.90;;;;;;4981436;28;20038;-83
2021/12/14 08:19:54;;;;;;;72.63;38.15;;;9.20;99.90;;;;;;5014430;28;20128;-84
2021/12/14 08:22:35;;;;;;;73.10;38.20;;;9.20;99.90;;;;;;5003161;28;20033;-83
2021/12/14 08:25:01;;;;;;;75.05;39.15;;;9.20;99.90;;;;;;4986704;28;20057;-83
2021/12/14 08:27:29;;;;;;;73.95;38.58;;;9.20;99.90;;;;;;4985119;28;20030;-83
2021/12/14 08:29:59;;;;;;;78.07;40.72;;;9.30;99.90;;;;;;5000652;28;20537;-83
2021/12/14 08:32:36;;;;;;;74.00;37.10;;;9.20;99.90;;;;;;5001557;28;20543;-83
2021/12/14 08:35:07;;;;;;;74.03;40.00;;;9.30;99.90;;;;;;5012281;28;20065;-83
2021/12/14 08:37:40;;;;;;;72.95;38.58;;;9.30;99.90;;;;;;5002069;28;20041;-83
2021/12/14 08:40:23;;;;;;;82.22;40.25;;;9.30;99.90;;;;;;5016132;28;20116;-83
2021/12/14 08:43:06;;;;;;;74.82;37.97;;;9.30;99.90;;;;;;4980723;28;20595;-83
2021/12/14 08:45:39;;;;;;;79.28;39.83;;;9.30;99.90;;;;;;5012824;28;20528;-83
2021/12/14 08:48:13;;;;;;;74.07;39.03;;;9.30;99.90;;;;;;4989580;28;20462;-83
2021/12/14 08:50:45;;;;;;;70.68;37.35;;;9.30;99.90;;;;;;4997496;28;20045;-83
2021/12/14 08:53:12;;;;;;;75.35;37.40;;;9.30;99.90;;;;;;4986160;28;20105;-83
2021/12/14 08:55:43;;;;;;;78.68;39.40;;;9.30;99.90;;;;;;4986016;28;20065;-83
2021/12/14 08:58:11;;;;;;;71.63;38.72;;;9.40;99.90;;;;;;5018155;28;20037;-84
2021/12/14 09:00:46;;;;;;;74.40;37.83;;;9.40;99.90;;;;;;4984264;28;20108;-83
2021/12/14 09:03:24;;;;;;;74.57;38.03;;;9.40;99.90;;;;;;4983214;28;20056;-83
2021/12/14 09:05:52;;;;;;;71.80;39.15;;;9.40;99.90;;;;;;4983442;28;20041;-83
2021/12/14 09:08:20;;;;;;;70.40;37.13;;;9.40;99.90;;;;;;4986772;28;20065;-83
2021/12/14 09:10:50;;;;;;;73.85;36.53;;;9.40;99.90;;;;;;5002436;28;20089;-83
2021/12/14 09:13:16;;;;;;;69.65;37.40;;;9.40;99.90;;;;;;4990045;28;20037;-83
2021/12/14 09:16:02;;;;;;;63.67;36.53;;;9.40;99.90;;;;;;4990032;28;20040;-83
2021/12/14 09:18:30;;;;;;;72.75;38.75;;;9.40;99.90;;;;;;5005905;28;20057;-83
2021/12/14 09:21:04;;;;;;;70.90;36.47;;;9.50;99.90;;;;;;5001927;28;20117;-83
2021/12/14 09:23:37;;;;;;;67.93;37.08;;;9.50;99.90;;;;;;5004770;28;20030;-83
2021/12/14 09:26:07;;;;;;;63.47;34.95;;;9.50;99.90;;;;;;5001497;28;20042;-83
2021/12/14 09:28:35;;;;;;;69.07;38.05;;;9.50;99.90;;;;;;5002886;28;20033;-83
2021/12/14 09:31:05;;;;;;;69.97;36.42;;;9.60;99.90;;;;;;4989329;28;20388;-83
2021/12/14 09:33:35;;;;;;;72.60;37.15;;;9.60;99.90;;;;;;4987777;28;20037;-83
2021/12/14 09:36:00;;;;;;;63.65;36.05;;;9.60;99.90;;;;;;4987225;28;20041;-83
2021/12/14 09:38:33;;;;;;;67.13;36.47;;;9.60;99.90;;;;;;4989702;28;20401;-83
2021/12/14 09:41:06;;;;;;;67.72;36.60;;;9.60;99.90;;;;;;5005668;28;20041;-83
2021/12/14 09:43:36;;;;;;;61.03;35.10;;;9.60;99.90;;;;;;4988437;28;20615;-83
2021/12/14 09:46:04;;;;;;;65.45;36.25;;;9.70;99.90;;;;;;5005049;28;20076;-83
2021/12/14 09:48:36;;;;;;;69.40;36.35;;;9.70;99.90;;;;;;5005253;28;20040;-83
2021/12/14 09:51:07;;;;;;;61.90;36.28;;;9.80;99.90;;;;;;4987896;28;20034;-83
2021/12/14 09:53:37;;;;;;;65.05;36.30;;;9.70;99.90;;;;;;5005687;28;20123;-83
2021/12/14 09:56:10;;;;;;;56.70;33.35;;;9.70;99.90;;;;;;4980408;28;20050;-83
2021/12/14 09:58:40;;;;;;;62.58;35.05;;;9.70;99.90;;;;;;4989126;28;20064;-83
2021/12/14 10:01:15;;;;;;;62.78;34.95;;;9.70;99.90;;;;;;4987911;28;20053;-83
2021/12/14 10:03:43;;;;;;;56.40;33.92;;;9.60;99.90;;;;;;4988905;28;20042;-83
2021/12/14 10:06:11;;;;;;;61.88;33.90;;;9.70;99.90;;;;;;4999965;28;20087;-83
2021/12/14 10:08:42;;;;;;;56.03;32.80;;;9.60;99.90;;;;;;5004388;28;20048;-83
2021/12/14 10:11:12;;;;;;;61.45;36.08;;;9.60;99.90;;;;;;4987918;28;20373;-82
2021/12/14 10:13:45;;;;;;;64.95;35.22;;;9.70;99.90;;;;;;5000165;28;20108;-83
2021/12/14 10:16:11;;;;;;;60.90;33.63;;;9.70;99.90;;;;;;5000251;28;20029;-83
2021/12/14 10:18:45;;;;;;;66.55;34.67;;;9.70;99.90;;;;;;5003375;28;20049;-83
2021/12/14 10:21:15;;;;;;;65.07;34.08;;;9.70;99.90;;;;;;4986125;28;20136;-83
2021/12/14 10:23:43;;;;;;;61.90;34.13;;;9.70;99.90;;;;;;4987064;28;20538;-83
2021/12/14 10:26:10;;;;;;;53.08;31.23;;;9.70;99.90;;;;;;4997022;28;20057;-83
2021/12/14 10:28:38;;;;;;;63.72;34.88;;;9.70;99.90;;;;;;5001552;28;20068;-83
2021/12/14 10:31:11;;;;;;;64.82;33.30;;;9.70;99.90;;;;;;4983994;28;20120;-83
2021/12/14 10:33:39;;;;;;;60.17;31.98;;;9.70;99.90;;;;;;4986462;28;20049;-83
2021/12/14 10:36:20;;;;;;;60.35;34.80;;;9.70;99.90;;;;;;4999079;28;20049;-83
2021/12/14 10:44:15;;;;;;;61.78;33.03;;;9.70;99.90;;;;;;5003752;28;20038;-82
2021/12/14 10:46:46;;;;;;;65.57;35.00;;;9.70;99.90;;;;;;4987304;28;20064;-83
2021/12/14 10:49:14;;;;;;;55.58;30.30;;;9.80;99.90;;;;;;4988145;28;20040;-83
2021/12/14 10:51:43;;;;;;;57.92;32.10;;;9.70;99.90;;;;;;4986652;28;20033;-84
2021/12/14 10:54:13;;;;;;;60.13;32.45;;;9.80;99.90;;;;;;4985453;28;20057;-83
2021/12/14 10:56:46;;;;;;;59.70;31.90;;;9.80;99.90;;;;;;4987814;28;20131;-83
2021/12/14 10:59:16;;;;;;;57.53;31.88;;;9.90;99.90;;;;;;5001789;28;20048;-83
2021/12/14 11:01:48;;;;;;;58.15;32.03;;;9.80;99.90;;;;;;4997999;28;20420;-83
2021/12/14 11:04:15;;;;;;;51.08;29.20;;;9.90;99.90;;;;;;5002273;28;20124;-84
2021/12/14 11:06:45;;;;;;;55.72;28.73;;;9.90;99.90;;;;;;4985625;28;20056;-83
2021/12/14 11:09:45;;;;;;;54.65;30.38;;;9.90;99.90;;;;;;4999385;28;20438;-83
2021/12/14 11:12:32;;;;;;;49.28;28.48;;;10.00;99.90;;;;;;5003252;28;20046;-83
2021/12/14 11:15:16;;;;;;;49.92;28.35;;;9.90;99.90;;;;;;4995637;28;20037;-83
2021/12/14 11:20:33;;;;;;;47.67;27.95;;;9.90;99.90;;;;;;5014343;28;20042;-83
2021/12/14 11:22:59;;;;;;;51.78;28.05;;;9.90;99.90;;;;;;4986746;28;20049;-84
2021/12/14 11:25:28;;;;;;;51.42;28.08;;;9.90;99.90;;;;;;4984720;28;20072;-83
2021/12/14 11:28:00;;;;;;;56.10;28.50;;;9.90;99.90;;;;;;4982154;28;20042;-83
2021/12/14 11:30:42;;;;;;;52.75;27.45;;;10.00;99.90;;;;;;4999922;28;20514;-83
2021/12/14 11:33:15;;;;;;;51.60;28.70;;;9.90;99.90;;;;;;4986719;28;20370;-83
2021/12/14 11:35:49;;;;;;;52.67;27.40;;;10.00;99.90;;;;;;4998199;28;20056;-83
2021/12/14 11:38:27;;;;;;;56.72;28.48;;;10.00;99.90;;;;;;4987637;28;20052;-83
2021/12/14 11:40:53;;;;;;;53.67;27.77;;;10.00;99.90;;;;;;4999631;28;20041;-83
2021/12/14 11:43:23;;;;;;;52.92;28.08;;;10.00;99.90;;;;;;5003004;28;20129;-83
2021/12/14 11:45:50;;;;;;;53.20;27.70;;;10.00;99.90;;;;;;5002442;28;20464;-83
2021/12/14 11:48:31;;;;;;;47.70;26.63;;;10.00;99.90;;;;;;5005252;28;20044;-83
2021/12/14 11:50:58;;;;;;;54.17;27.00;;;10.00;99.90;;;;;;5012016;28;20045;-83
2021/12/14 11:53:24;;;;;;;54.92;28.50;;;10.00;99.90;;;;;;5004299;28;20430;-83
2021/12/14 11:55:52;;;;;;;51.35;26.88;;;10.10;99.90;;;;;;4987154;28;20272;-83
2021/12/14 11:58:26;;;;;;;52.15;27.02;;;10.00;99.90;;;;;;5019633;28;20060;-83
2021/12/14 12:01:07;;;;;;;55.15;27.75;;;10.00;99.90;;;;;;5000358;28;20122;-83
2021/12/14 12:03:56;;;;;;;53.17;28.45;;;10.10;99.90;;;;;;4995847;28;20057;-83
2021/12/14 12:09:39;;;;;;;50.33;27.08;;;10.00;99.90;;;;;;5001041;28;20084;-83
2021/12/14 12:12:26;;;;;;;51.67;27.27;;;10.00;99.90;;;;;;5002736;28;20030;-83
2021/12/14 12:15:16;;;;;;;55.55;26.70;;;10.00;99.90;;;;;;4998990;28;20041;-83
2021/12/14 12:17:59;;;;;;;52.83;27.55;;;10.00;99.90;;;;;;4998682;28;20041;-83
2021/12/14 12:20:24;;;;;;;60.60;27.30;;;10.00;99.90;;;;;;5000759;28;20447;-83
2021/12/14 12:23:06;;;;;;;54.28;28.27;;;10.00;99.90;;;;;;4983704;28;20033;-83
2021/12/14 12:25:37;;;;;;;54.47;27.58;;;10.00;99.90;;;;;;4986813;28;20808;-83
2021/12/14 12:28:03;;;;;;;56.33;27.83;;;10.00;99.90;;;;;;5001850;28;20256;-83
2021/12/14 12:30:35;;;;;;;57.10;29.00;;;10.00;99.90;;;;;;4998330;28;20340;-83
2021/12/14 12:33:24;;;;;;;62.22;28.92;;;10.10;99.90;;;;;;4987818;28;20039;-83
2021/12/14 12:36:13;;;;;;;61.72;28.98;;;10.00;99.90;;;;;;5008283;28;20489;-83
2021/12/14 12:38:44;;;;;;;58.35;27.52;;;10.10;99.90;;;;;;5002197;28;20104;-83
2021/12/14 12:41:48;;;;;;;62.70;28.77;;;10.10;99.90;;;;;;5002920;28;20033;-83
2021/12/14 12:44:40;;;;;;;59.97;27.98;;;10.10;99.90;;;;;;5003471;28;20492;-83
2021/12/14 12:47:16;;;;;;;62.38;27.83;;;10.10;99.90;;;;;;5018714;28;20081;-83
2021/12/14 12:49:49;;;;;;;60.78;29.23;;;10.20;99.90;;;;;;4994325;28;20065;-83
2021/12/14 12:52:18;;;;;;;73.40;30.85;;;10.10;99.90;;;;;;5003957;28;20041;-83
2021/12/14 12:55:10;;;;;;;64.93;31.42;;;10.20;99.90;;;;;;4986491;28;20088;-83
2021/12/14 12:57:41;;;;;;;59.72;27.50;;;10.30;99.90;;;;;;4987012;28;20528;-83
2021/12/14 13:00:38;;;;;;;68.60;29.00;;;10.20;99.90;;;;;;5018651;28;20181;-83
2021/12/14 13:03:15;;;;;;;58.15;26.08;;;10.30;99.90;;;;;;5000629;28;20120;-84
2021/12/14 13:06:01;;;;;;;61.95;26.33;;;10.20;99.90;;;;;;4999493;28;20044;-84
2021/12/14 13:08:33;;;;;;;66.88;27.67;;;10.20;99.90;;;;;;5001123;28;20458;-84
2021/12/14 13:11:11;;;;;;;60.90;27.45;;;10.30;99.90;;;;;;4985803;28;20504;-84
2021/12/14 13:13:41;;;;;;;60.17;27.52;;;10.30;99.90;;;;;;5000100;28;20444;-84
2021/12/14 13:16:34;;;;;;;56.70;27.30;;;10.30;99.90;;;;;;4986464;28;20067;-83
2021/12/14 13:19:00;;;;;;;54.67;25.73;;;10.30;99.90;;;;;;5003367;28;20307;-83
2021/12/14 13:21:47;;;;;;;61.45;28.42;;;10.40;99.90;;;;;;4983979;28;20115;-83
2021/12/14 13:24:24;;;;;;;58.90;26.38;;;10.40;99.90;;;;;;4997797;28;20157;-83
2021/12/14 13:27:02;;;;;;;55.60;26.73;;;10.30;99.90;;;;;;4985808;28;20042;-83
2021/12/14 13:29:31;;;;;;;58.22;26.20;;;10.40;99.90;;;;;;5003369;28;20056;-83
2021/12/14 13:32:18;;;;;;;62.88;26.50;;;10.40;99.90;;;;;;5003135;28;20041;-83
2021/12/14 13:35:01;;;;;;;54.28;25.90;;;10.40;99.90;;;;;;4980257;28;20069;-83
2021/12/14 13:37:34;;;;;;;57.78;26.27;;;10.40;99.90;;;;;;5000802;28;20083;-84
2021/12/14 13:40:03;;;;;;;54.78;25.52;;;10.30;99.90;;;;;;4984600;28;20052;-83
2021/12/14 13:42:59;;;;;;;61.75;27.00;;;10.40;99.90;;;;;;4996340;28;20045;-83
2021/12/14 13:45:32;;;;;;;59.20;27.83;;;10.40;99.90;;;;;;5001734;28;20113;-83
2021/12/14 13:48:04;;;;;;;55.67;26.25;;;10.40;99.90;;;;;;4987646;28;20046;-83